sensor_id;sensor_type;location;lat;lon;timestamp;P1;durP1;ratioP1;P2;durP2;ratioP2
6017;SDS011;3037;51.068;13.780;2022-12-18T00:02:03;60.00;;;26.90;;
6017;SDS011;3037;51.068;13.780;2022-12-18T00:04:29;56.80;;;24.33;;
6017;SDS011;3037;51.068;13.780;2022-12-18T00:06:55;77.43;;;28.40;;
6017;SDS011;3037;51.068;13.780;2022-12-18T00:09:20;62.67;;;28.10;;
6017;SDS011;3037;51.068;13.780;2022-12-18T00:11:46;70.10;;;27.40;;
6017;SDS011;3037;51.068;13.780;2022-12-18T00:14:12;54.33;;;26.43;;
6017;SDS011;3037;51.068;13.780;2022-12-18T00:16:38;56.57;;;26.93;;
6017;SDS011;3037;51.068;13.780;2022-12-18T00:19:04;60.23;;;29.20;;
6017;SDS011;3037;51.068;13.780;2022-12-18T00:21:31;70.07;;;26.87;;
6017;SDS011;3037;51.068;13.780;2022-12-18T00:23:57;54.13;;;26.13;;
6017;SDS011;3037;51.068;13.780;2022-12-18T00:26:26;53.07;;;25.57;;
6017;SDS011;3037;51.068;13.780;2022-12-18T00:28:53;64.83;;;29.27;;
6017;SDS011;3037;51.068;13.780;2022-12-18T00:31:22;59.47;;;28.50;;
6017;SDS011;3037;51.068;13.780;2022-12-18T00:33:49;60.30;;;29.67;;
6017;SDS011;3037;51.068;13.780;2022-12-18T00:36:18;71.17;;;28.57;;
6017;SDS011;3037;51.068;13.780;2022-12-18T00:38:46;59.87;;;26.40;;
6017;SDS011;3037;51.068;13.780;2022-12-18T00:41:12;54.17;;;25.07;;
6017;SDS011;3037;51.068;13.780;2022-12-18T00:43:59;54.27;;;25.47;;
6017;SDS011;3037;51.068;13.780;2022-12-18T00:46:24;52.43;;;25.30;;
6017;SDS011;3037;51.068;13.780;2022-12-18T00:48:50;55.43;;;27.33;;
6017;SDS011;3037;51.068;13.780;2022-12-18T00:51:15;61.83;;;26.23;;
6017;SDS011;3037;51.068;13.780;2022-12-18T00:53:41;71.97;;;27.03;;
6017;SDS011;3037;51.068;13.780;2022-12-18T00:56:06;61.23;;;27.30;;
6017;SDS011;3037;51.068;13.780;2022-12-18T00:58:32;63.50;;;26.70;;
6017;SDS011;3037;51.068;13.780;2022-12-18T01:00:57;70.87;;;28.43;;
6017;SDS011;3037;51.068;13.780;2022-12-18T01:03:23;58.43;;;26.60;;
6017;SDS011;3037;51.068;13.780;2022-12-18T01:05:48;52.93;;;23.83;;
6017;SDS011;3037;51.068;13.780;2022-12-18T01:08:14;63.43;;;25.63;;
6017;SDS011;3037;51.068;13.780;2022-12-18T01:10:40;48.83;;;21.37;;
6017;SDS011;3037;51.068;13.780;2022-12-18T01:13:06;62.20;;;26.90;;
6017;SDS011;3037;51.068;13.780;2022-12-18T01:15:31;55.87;;;24.23;;
6017;SDS011;3037;51.068;13.780;2022-12-18T01:17:57;68.47;;;26.00;;
6017;SDS011;3037;51.068;13.780;2022-12-18T01:20:23;56.03;;;23.83;;
6017;SDS011;3037;51.068;13.780;2022-12-18T01:22:48;52.50;;;23.17;;
6017;SDS011;3037;51.068;13.780;2022-12-18T01:25:14;55.50;;;24.10;;
6017;SDS011;3037;51.068;13.780;2022-12-18T01:27:39;46.67;;;22.03;;
6017;SDS011;3037;51.068;13.780;2022-12-18T01:30:05;54.33;;;23.33;;
6017;SDS011;3037;51.068;13.780;2022-12-18T01:32:31;55.30;;;25.03;;
6017;SDS011;3037;51.068;13.780;2022-12-18T01:34:57;44.60;;;24.13;;
6017;SDS011;3037;51.068;13.780;2022-12-18T01:37:22;56.93;;;24.80;;
6017;SDS011;3037;51.068;13.780;2022-12-18T01:39:48;44.67;;;22.60;;
6017;SDS011;3037;51.068;13.780;2022-12-18T01:42:15;55.60;;;25.90;;
6017;SDS011;3037;51.068;13.780;2022-12-18T01:50:13;47.97;;;22.57;;
6017;SDS011;3037;51.068;13.780;2022-12-18T01:52:43;45.33;;;21.33;;
6017;SDS011;3037;51.068;13.780;2022-12-18T01:55:13;42.97;;;22.57;;
6017;SDS011;3037;51.068;13.780;2022-12-18T01:57:42;49.23;;;23.07;;
6017;SDS011;3037;51.068;13.780;2022-12-18T02:00:10;52.47;;;21.80;;
6017;SDS011;3037;51.068;13.780;2022-12-18T02:02:37;50.90;;;22.67;;
6017;SDS011;3037;51.068;13.780;2022-12-18T02:05:05;40.80;;;19.43;;
6017;SDS011;3037;51.068;13.780;2022-12-18T02:07:37;45.33;;;20.10;;
6017;SDS011;3037;51.068;13.780;2022-12-18T02:12:52;46.60;;;22.20;;
6017;SDS011;3037;51.068;13.780;2022-12-18T02:18:12;43.27;;;20.57;;
6017;SDS011;3037;51.068;13.780;2022-12-18T02:28:58;44.97;;;19.20;;
6017;SDS011;3037;51.068;13.780;2022-12-18T02:31:30;44.17;;;19.63;;
6017;SDS011;3037;51.068;13.780;2022-12-18T02:34:02;42.30;;;19.30;;
6017;SDS011;3037;51.068;13.780;2022-12-18T02:36:29;37.00;;;18.40;;
6017;SDS011;3037;51.068;13.780;2022-12-18T02:38:58;42.83;;;19.40;;
6017;SDS011;3037;51.068;13.780;2022-12-18T02:41:26;44.07;;;19.00;;
6017;SDS011;3037;51.068;13.780;2022-12-18T02:43:55;32.97;;;17.33;;
6017;SDS011;3037;51.068;13.780;2022-12-18T02:48:57;38.43;;;17.80;;
6017;SDS011;3037;51.068;13.780;2022-12-18T02:51:33;42.17;;;18.00;;
6017;SDS011;3037;51.068;13.780;2022-12-18T02:54:15;39.53;;;18.23;;
6017;SDS011;3037;51.068;13.780;2022-12-18T02:56:54;42.40;;;17.50;;
6017;SDS011;3037;51.068;13.780;2022-12-18T02:59:25;39.90;;;18.70;;
6017;SDS011;3037;51.068;13.780;2022-12-18T03:02:21;40.60;;;18.63;;
6017;SDS011;3037;51.068;13.780;2022-12-18T03:05:16;39.37;;;19.43;;
6017;SDS011;3037;51.068;13.780;2022-12-18T03:07:49;47.33;;;19.20;;
6017;SDS011;3037;51.068;13.780;2022-12-18T03:10:16;40.13;;;17.20;;
6017;SDS011;3037;51.068;13.780;2022-12-18T03:13:08;41.60;;;19.40;;
6017;SDS011;3037;51.068;13.780;2022-12-18T03:15:39;48.30;;;20.60;;
6017;SDS011;3037;51.068;13.780;2022-12-18T03:18:56;48.80;;;20.07;;
6017;SDS011;3037;51.068;13.780;2022-12-18T03:21:23;39.77;;;19.47;;
6017;SDS011;3037;51.068;13.780;2022-12-18T03:23:53;40.30;;;19.60;;
6017;SDS011;3037;51.068;13.780;2022-12-18T03:26:21;41.77;;;19.10;;
6017;SDS011;3037;51.068;13.780;2022-12-18T03:28:55;40.90;;;19.87;;
6017;SDS011;3037;51.068;13.780;2022-12-18T03:31:26;36.60;;;17.73;;
6017;SDS011;3037;51.068;13.780;2022-12-18T03:33:57;37.00;;;16.10;;
6017;SDS011;3037;51.068;13.780;2022-12-18T03:36:26;39.53;;;17.13;;
6017;SDS011;3037;51.068;13.780;2022-12-18T03:38:52;36.33;;;16.27;;
6017;SDS011;3037;51.068;13.780;2022-12-18T03:41:26;38.60;;;18.63;;
6017;SDS011;3037;51.068;13.780;2022-12-18T03:49:46;31.00;;;15.90;;
6017;SDS011;3037;51.068;13.780;2022-12-18T03:54:43;36.30;;;16.60;;
6017;SDS011;3037;51.068;13.780;2022-12-18T03:57:14;42.27;;;16.50;;
6017;SDS011;3037;51.068;13.780;2022-12-18T03:59:43;30.87;;;14.83;;
6017;SDS011;3037;51.068;13.780;2022-12-18T04:02:12;28.80;;;14.73;;
6017;SDS011;3037;51.068;13.780;2022-12-18T04:04:40;33.40;;;16.37;;
6017;SDS011;3037;51.068;13.780;2022-12-18T04:07:07;27.00;;;12.17;;
6017;SDS011;3037;51.068;13.780;2022-12-18T04:09:34;26.80;;;15.77;;
6017;SDS011;3037;51.068;13.780;2022-12-18T04:12:01;37.40;;;15.00;;
6017;SDS011;3037;51.068;13.780;2022-12-18T04:14:27;31.73;;;16.27;;
6017;SDS011;3037;51.068;13.780;2022-12-18T04:16:53;41.53;;;14.33;;
6017;SDS011;3037;51.068;13.780;2022-12-18T04:19:18;38.90;;;15.30;;
6017;SDS011;3037;51.068;13.780;2022-12-18T04:21:44;35.17;;;15.93;;
6017;SDS011;3037;51.068;13.780;2022-12-18T04:24:09;29.90;;;14.63;;
6017;SDS011;3037;51.068;13.780;2022-12-18T04:26:35;26.27;;;14.73;;
6017;SDS011;3037;51.068;13.780;2022-12-18T04:29:00;33.70;;;13.70;;
6017;SDS011;3037;51.068;13.780;2022-12-18T04:31:26;32.17;;;13.67;;
6017;SDS011;3037;51.068;13.780;2022-12-18T04:33:52;30.30;;;14.07;;
6017;SDS011;3037;51.068;13.780;2022-12-18T04:36:17;32.40;;;15.67;;
6017;SDS011;3037;51.068;13.780;2022-12-18T04:38:43;28.33;;;14.33;;
6017;SDS011;3037;51.068;13.780;2022-12-18T04:41:09;25.47;;;12.50;;
6017;SDS011;3037;51.068;13.780;2022-12-18T04:43:34;35.90;;;15.30;;
6017;SDS011;3037;51.068;13.780;2022-12-18T04:46:03;32.47;;;14.47;;
6017;SDS011;3037;51.068;13.780;2022-12-18T04:48:30;26.93;;;13.80;;
6017;SDS011;3037;51.068;13.780;2022-12-18T04:50:56;29.93;;;15.13;;
6017;SDS011;3037;51.068;13.780;2022-12-18T04:53:21;31.00;;;14.57;;
6017;SDS011;3037;51.068;13.780;2022-12-18T04:55:47;28.50;;;13.87;;
6017;SDS011;3037;51.068;13.780;2022-12-18T04:58:12;33.00;;;15.10;;
6017;SDS011;3037;51.068;13.780;2022-12-18T05:00:38;34.23;;;14.60;;
6017;SDS011;3037;51.068;13.780;2022-12-18T05:03:04;29.03;;;13.63;;
6017;SDS011;3037;51.068;13.780;2022-12-18T05:05:29;23.83;;;12.80;;
6017;SDS011;3037;51.068;13.780;2022-12-18T05:07:55;30.30;;;16.03;;
6017;SDS011;3037;51.068;13.780;2022-12-18T05:10:21;29.53;;;14.53;;
6017;SDS011;3037;51.068;13.780;2022-12-18T05:12:46;31.97;;;16.27;;
6017;SDS011;3037;51.068;13.780;2022-12-18T05:15:30;29.50;;;14.53;;
6017;SDS011;3037;51.068;13.780;2022-12-18T05:17:57;27.90;;;14.50;;
6017;SDS011;3037;51.068;13.780;2022-12-18T05:20:23;37.57;;;17.40;;
6017;SDS011;3037;51.068;13.780;2022-12-18T05:22:50;38.30;;;15.20;;
6017;SDS011;3037;51.068;13.780;2022-12-18T05:25:16;26.80;;;14.43;;
6017;SDS011;3037;51.068;13.780;2022-12-18T05:27:42;35.97;;;15.57;;
6017;SDS011;3037;51.068;13.780;2022-12-18T05:30:08;29.47;;;15.00;;
6017;SDS011;3037;51.068;13.780;2022-12-18T05:32:34;23.83;;;14.13;;
6017;SDS011;3037;51.068;13.780;2022-12-18T05:34:59;25.10;;;12.50;;
6017;SDS011;3037;51.068;13.780;2022-12-18T05:37:25;30.20;;;13.30;;
6017;SDS011;3037;51.068;13.780;2022-12-18T05:39:51;27.83;;;14.10;;
6017;SDS011;3037;51.068;13.780;2022-12-18T05:42:16;27.67;;;13.03;;
6017;SDS011;3037;51.068;13.780;2022-12-18T05:44:42;38.67;;;14.00;;
6017;SDS011;3037;51.068;13.780;2022-12-18T05:47:08;29.60;;;12.67;;
6017;SDS011;3037;51.068;13.780;2022-12-18T05:49:34;27.30;;;12.83;;
6017;SDS011;3037;51.068;13.780;2022-12-18T05:51:59;26.30;;;12.13;;
6017;SDS011;3037;51.068;13.780;2022-12-18T05:54:26;23.40;;;12.00;;
6017;SDS011;3037;51.068;13.780;2022-12-18T05:56:52;24.60;;;13.23;;
6017;SDS011;3037;51.068;13.780;2022-12-18T05:59:18;23.77;;;12.23;;
6017;SDS011;3037;51.068;13.780;2022-12-18T06:01:44;26.40;;;11.70;;
6017;SDS011;3037;51.068;13.780;2022-12-18T06:04:10;22.17;;;11.30;;
6017;SDS011;3037;51.068;13.780;2022-12-18T06:06:35;21.50;;;11.33;;
6017;SDS011;3037;51.068;13.780;2022-12-18T06:09:01;28.67;;;15.20;;
6017;SDS011;3037;51.068;13.780;2022-12-18T06:11:33;32.23;;;13.37;;
6017;SDS011;3037;51.068;13.780;2022-12-18T06:14:00;28.70;;;13.20;;
6017;SDS011;3037;51.068;13.780;2022-12-18T06:16:27;32.07;;;13.80;;
6017;SDS011;3037;51.068;13.780;2022-12-18T06:18:55;20.80;;;11.90;;
6017;SDS011;3037;51.068;13.780;2022-12-18T06:21:24;23.50;;;12.20;;
6017;SDS011;3037;51.068;13.780;2022-12-18T06:23:50;22.97;;;12.60;;
6017;SDS011;3037;51.068;13.780;2022-12-18T06:26:16;26.50;;;13.13;;
6017;SDS011;3037;51.068;13.780;2022-12-18T06:28:41;19.53;;;11.17;;
6017;SDS011;3037;51.068;13.780;2022-12-18T06:31:07;22.10;;;11.90;;
6017;SDS011;3037;51.068;13.780;2022-12-18T06:33:33;26.87;;;13.10;;
6017;SDS011;3037;51.068;13.780;2022-12-18T06:36:06;20.63;;;10.60;;
6017;SDS011;3037;51.068;13.780;2022-12-18T06:38:35;30.27;;;12.87;;
6017;SDS011;3037;51.068;13.780;2022-12-18T06:41:15;22.30;;;11.80;;
6017;SDS011;3037;51.068;13.780;2022-12-18T06:43:42;24.67;;;12.70;;
6017;SDS011;3037;51.068;13.780;2022-12-18T06:46:09;29.07;;;12.80;;
6017;SDS011;3037;51.068;13.780;2022-12-18T06:48:35;24.77;;;13.17;;
6017;SDS011;3037;51.068;13.780;2022-12-18T06:51:01;35.03;;;13.83;;
6017;SDS011;3037;51.068;13.780;2022-12-18T06:53:26;28.23;;;14.23;;
6017;SDS011;3037;51.068;13.780;2022-12-18T06:55:52;28.53;;;13.77;;
6017;SDS011;3037;51.068;13.780;2022-12-18T06:58:18;32.50;;;13.70;;
6017;SDS011;3037;51.068;13.780;2022-12-18T07:00:43;28.67;;;13.50;;
6017;SDS011;3037;51.068;13.780;2022-12-18T07:03:09;31.87;;;13.03;;
6017;SDS011;3037;51.068;13.780;2022-12-18T07:05:39;26.80;;;13.33;;
6017;SDS011;3037;51.068;13.780;2022-12-18T07:08:05;24.60;;;12.97;;
6017;SDS011;3037;51.068;13.780;2022-12-18T07:10:31;23.17;;;11.40;;
6017;SDS011;3037;51.068;13.780;2022-12-18T07:12:56;28.10;;;12.33;;
6017;SDS011;3037;51.068;13.780;2022-12-18T07:15:22;24.30;;;13.30;;
6017;SDS011;3037;51.068;13.780;2022-12-18T07:17:47;54.60;;;15.23;;
6017;SDS011;3037;51.068;13.780;2022-12-18T07:20:13;26.03;;;13.77;;
6017;SDS011;3037;51.068;13.780;2022-12-18T07:22:39;19.90;;;12.60;;
6017;SDS011;3037;51.068;13.780;2022-12-18T07:25:04;33.00;;;13.60;;
6017;SDS011;3037;51.068;13.780;2022-12-18T07:27:30;26.50;;;12.53;;
6017;SDS011;3037;51.068;13.780;2022-12-18T07:29:56;22.43;;;12.00;;
6017;SDS011;3037;51.068;13.780;2022-12-18T07:32:22;23.43;;;12.90;;
6017;SDS011;3037;51.068;13.780;2022-12-18T07:34:47;29.57;;;14.50;;
6017;SDS011;3037;51.068;13.780;2022-12-18T07:37:13;26.03;;;12.43;;
6017;SDS011;3037;51.068;13.780;2022-12-18T07:39:38;35.93;;;14.70;;
6017;SDS011;3037;51.068;13.780;2022-12-18T07:42:04;34.20;;;12.90;;
6017;SDS011;3037;51.068;13.780;2022-12-18T07:44:48;28.57;;;13.77;;
6017;SDS011;3037;51.068;13.780;2022-12-18T07:47:13;33.10;;;14.80;;
6017;SDS011;3037;51.068;13.780;2022-12-18T07:49:39;28.03;;;12.97;;
6017;SDS011;3037;51.068;13.780;2022-12-18T07:52:04;28.43;;;13.30;;
6017;SDS011;3037;51.068;13.780;2022-12-18T07:54:30;28.40;;;14.23;;
6017;SDS011;3037;51.068;13.780;2022-12-18T07:56:56;27.87;;;14.43;;
6017;SDS011;3037;51.068;13.780;2022-12-18T07:59:21;26.60;;;12.83;;
6017;SDS011;3037;51.068;13.780;2022-12-18T08:01:47;21.57;;;12.43;;
6017;SDS011;3037;51.068;13.780;2022-12-18T08:04:12;30.10;;;13.57;;
6017;SDS011;3037;51.068;13.780;2022-12-18T08:06:38;32.23;;;13.20;;
6017;SDS011;3037;51.068;13.780;2022-12-18T08:09:03;24.20;;;12.27;;
6017;SDS011;3037;51.068;13.780;2022-12-18T08:11:29;22.90;;;12.67;;
6017;SDS011;3037;51.068;13.780;2022-12-18T08:13:55;19.57;;;11.00;;
6017;SDS011;3037;51.068;13.780;2022-12-18T08:16:21;30.23;;;12.63;;
6017;SDS011;3037;51.068;13.780;2022-12-18T08:18:47;20.50;;;12.30;;
6017;SDS011;3037;51.068;13.780;2022-12-18T08:21:14;20.40;;;12.13;;
6017;SDS011;3037;51.068;13.780;2022-12-18T08:23:42;24.20;;;13.57;;
6017;SDS011;3037;51.068;13.780;2022-12-18T08:26:07;27.93;;;13.30;;
6017;SDS011;3037;51.068;13.780;2022-12-18T08:28:34;28.80;;;13.70;;
6017;SDS011;3037;51.068;13.780;2022-12-18T08:30:59;26.80;;;14.30;;
6017;SDS011;3037;51.068;13.780;2022-12-18T08:33:25;26.43;;;13.40;;
6017;SDS011;3037;51.068;13.780;2022-12-18T08:35:51;34.17;;;15.10;;
6017;SDS011;3037;51.068;13.780;2022-12-18T08:38:17;26.20;;;14.23;;
6017;SDS011;3037;51.068;13.780;2022-12-18T08:40:42;29.70;;;15.00;;
6017;SDS011;3037;51.068;13.780;2022-12-18T08:43:09;23.87;;;14.50;;
6017;SDS011;3037;51.068;13.780;2022-12-18T08:45:54;29.90;;;15.00;;
6017;SDS011;3037;51.068;13.780;2022-12-18T08:48:19;29.20;;;15.00;;
6017;SDS011;3037;51.068;13.780;2022-12-18T08:50:53;25.47;;;14.20;;
6017;SDS011;3037;51.068;13.780;2022-12-18T08:53:22;24.50;;;14.17;;
6017;SDS011;3037;51.068;13.780;2022-12-18T08:55:49;29.17;;;14.10;;
6017;SDS011;3037;51.068;13.780;2022-12-18T08:58:14;29.27;;;15.43;;
6017;SDS011;3037;51.068;13.780;2022-12-18T09:00:40;32.10;;;15.07;;
6017;SDS011;3037;51.068;13.780;2022-12-18T09:03:10;32.47;;;14.03;;
6017;SDS011;3037;51.068;13.780;2022-12-18T09:05:39;24.30;;;15.50;;
6017;SDS011;3037;51.068;13.780;2022-12-18T09:08:05;27.03;;;15.03;;
6017;SDS011;3037;51.068;13.780;2022-12-18T09:10:31;25.27;;;14.73;;
6017;SDS011;3037;51.068;13.780;2022-12-18T09:12:57;24.27;;;14.87;;
6017;SDS011;3037;51.068;13.780;2022-12-18T09:15:22;29.93;;;14.83;;
6017;SDS011;3037;51.068;13.780;2022-12-18T09:17:48;28.97;;;16.47;;
6017;SDS011;3037;51.068;13.780;2022-12-18T09:20:15;26.13;;;15.53;;
6017;SDS011;3037;51.068;13.780;2022-12-18T09:22:41;30.10;;;16.23;;
6017;SDS011;3037;51.068;13.780;2022-12-18T09:25:07;33.40;;;16.87;;
6017;SDS011;3037;51.068;13.780;2022-12-18T09:27:33;29.60;;;16.90;;
6017;SDS011;3037;51.068;13.780;2022-12-18T09:29:59;36.43;;;16.77;;
6017;SDS011;3037;51.068;13.780;2022-12-18T09:32:25;34.37;;;18.00;;
6017;SDS011;3037;51.068;13.780;2022-12-18T09:34:50;26.43;;;14.73;;
6017;SDS011;3037;51.068;13.780;2022-12-18T09:37:16;33.60;;;16.77;;
6017;SDS011;3037;51.068;13.780;2022-12-18T09:39:41;29.87;;;16.63;;
6017;SDS011;3037;51.068;13.780;2022-12-18T09:42:09;29.50;;;16.57;;
6017;SDS011;3037;51.068;13.780;2022-12-18T09:44:45;32.73;;;16.80;;
6017;SDS011;3037;51.068;13.780;2022-12-18T09:50:02;27.83;;;15.70;;
6017;SDS011;3037;51.068;13.780;2022-12-18T09:52:39;34.80;;;16.47;;
6017;SDS011;3037;51.068;13.780;2022-12-18T09:57:58;26.53;;;14.80;;
6017;SDS011;3037;51.068;13.780;2022-12-18T10:00:29;28.30;;;15.87;;
6017;SDS011;3037;51.068;13.780;2022-12-18T10:03:03;31.13;;;15.97;;
6017;SDS011;3037;51.068;13.780;2022-12-18T10:05:41;28.70;;;15.90;;
6017;SDS011;3037;51.068;13.780;2022-12-18T10:13:45;29.77;;;14.60;;
6017;SDS011;3037;51.068;13.780;2022-12-18T10:16:29;26.47;;;14.83;;
6017;SDS011;3037;51.068;13.780;2022-12-18T10:21:39;98.43;;;36.47;;
6017;SDS011;3037;51.068;13.780;2022-12-18T10:24:32;32.73;;;17.10;;
6017;SDS011;3037;51.068;13.780;2022-12-18T10:27:10;32.03;;;15.33;;
6017;SDS011;3037;51.068;13.780;2022-12-18T10:29:45;29.40;;;14.50;;
6017;SDS011;3037;51.068;13.780;2022-12-18T10:32:15;37.67;;;17.13;;
6017;SDS011;3037;51.068;13.780;2022-12-18T10:34:47;31.80;;;15.10;;
6017;SDS011;3037;51.068;13.780;2022-12-18T10:37:15;26.17;;;14.33;;
6017;SDS011;3037;51.068;13.780;2022-12-18T10:39:46;31.30;;;16.50;;
6017;SDS011;3037;51.068;13.780;2022-12-18T10:42:29;33.47;;;17.60;;
6017;SDS011;3037;51.068;13.780;2022-12-18T10:47:49;39.60;;;16.43;;
6017;SDS011;3037;51.068;13.780;2022-12-18T10:50:19;32.90;;;15.93;;
6017;SDS011;3037;51.068;13.780;2022-12-18T10:52:55;33.53;;;17.27;;
6017;SDS011;3037;51.068;13.780;2022-12-18T10:55:22;36.33;;;17.93;;
6017;SDS011;3037;51.068;13.780;2022-12-18T10:57:52;36.70;;;17.80;;
6017;SDS011;3037;51.068;13.780;2022-12-18T11:00:25;31.10;;;17.70;;
6017;SDS011;3037;51.068;13.780;2022-12-18T11:02:52;32.97;;;16.83;;
6017;SDS011;3037;51.068;13.780;2022-12-18T11:05:24;30.40;;;16.67;;
6017;SDS011;3037;51.068;13.780;2022-12-18T11:07:53;35.87;;;18.10;;
6017;SDS011;3037;51.068;13.780;2022-12-18T11:10:21;30.93;;;17.27;;
6017;SDS011;3037;51.068;13.780;2022-12-18T11:12:50;37.80;;;19.00;;
6017;SDS011;3037;51.068;13.780;2022-12-18T11:15:34;36.40;;;18.70;;
6017;SDS011;3037;51.068;13.780;2022-12-18T11:17:59;35.57;;;18.67;;
6017;SDS011;3037;51.068;13.780;2022-12-18T11:20:29;36.93;;;18.67;;
6017;SDS011;3037;51.068;13.780;2022-12-18T11:22:58;37.07;;;18.67;;
6017;SDS011;3037;51.068;13.780;2022-12-18T11:25:35;34.97;;;17.80;;
6017;SDS011;3037;51.068;13.780;2022-12-18T11:31:08;41.67;;;19.47;;
6017;SDS011;3037;51.068;13.780;2022-12-18T11:33:34;36.73;;;18.10;;
6017;SDS011;3037;51.068;13.780;2022-12-18T11:36:03;41.97;;;19.27;;
6017;SDS011;3037;51.068;13.780;2022-12-18T11:38:34;36.20;;;18.30;;
6017;SDS011;3037;51.068;13.780;2022-12-18T11:43:58;44.13;;;17.70;;
6017;SDS011;3037;51.068;13.780;2022-12-18T11:46:37;39.33;;;17.47;;
6017;SDS011;3037;51.068;13.780;2022-12-18T11:49:34;36.33;;;18.63;;
6017;SDS011;3037;51.068;13.780;2022-12-18T11:52:02;40.80;;;16.90;;
6017;SDS011;3037;51.068;13.780;2022-12-18T11:54:52;36.60;;;15.73;;
6017;SDS011;3037;51.068;13.780;2022-12-18T11:57:34;33.50;;;16.93;;
6017;SDS011;3037;51.068;13.780;2022-12-18T12:00:22;38.40;;;17.00;;
6017;SDS011;3037;51.068;13.780;2022-12-18T12:02:57;36.73;;;15.60;;
6017;SDS011;3037;51.068;13.780;2022-12-18T12:06:03;35.10;;;17.33;;
6017;SDS011;3037;51.068;13.780;2022-12-18T12:22:28;37.13;;;17.10;;
6017;SDS011;3037;51.068;13.780;2022-12-18T12:30:51;35.90;;;17.43;;
6017;SDS011;3037;51.068;13.780;2022-12-18T12:33:45;32.90;;;15.63;;
6017;SDS011;3037;51.068;13.780;2022-12-18T12:38:55;32.47;;;16.20;;
6017;SDS011;3037;51.068;13.780;2022-12-18T12:41:27;45.00;;;17.53;;
6017;SDS011;3037;51.068;13.780;2022-12-18T12:44:23;33.13;;;15.83;;
6017;SDS011;3037;51.068;13.780;2022-12-18T12:46:55;33.27;;;16.13;;
6017;SDS011;3037;51.068;13.780;2022-12-18T12:49:26;26.87;;;14.20;;
6017;SDS011;3037;51.068;13.780;2022-12-18T12:52:03;31.80;;;17.30;;
6017;SDS011;3037;51.068;13.780;2022-12-18T12:54:35;31.63;;;15.07;;
6017;SDS011;3037;51.068;13.780;2022-12-18T13:02:47;38.20;;;17.00;;
6017;SDS011;3037;51.068;13.780;2022-12-18T13:08:12;34.33;;;15.63;;
6017;SDS011;3037;51.068;13.780;2022-12-18T13:10:54;33.33;;;16.47;;
6017;SDS011;3037;51.068;13.780;2022-12-18T13:13:50;34.40;;;16.00;;
6017;SDS011;3037;51.068;13.780;2022-12-18T13:16:19;37.97;;;15.73;;
6017;SDS011;3037;51.068;13.780;2022-12-18T13:18:49;34.43;;;17.80;;
6017;SDS011;3037;51.068;13.780;2022-12-18T13:21:27;33.30;;;16.77;;
6017;SDS011;3037;51.068;13.780;2022-12-18T13:23:57;32.37;;;16.70;;
6017;SDS011;3037;51.068;13.780;2022-12-18T13:26:40;39.33;;;16.00;;
6017;SDS011;3037;51.068;13.780;2022-12-18T13:29:06;35.77;;;17.17;;
6017;SDS011;3037;51.068;13.780;2022-12-18T13:34:19;44.30;;;17.80;;
6017;SDS011;3037;51.068;13.780;2022-12-18T13:36:50;32.67;;;14.33;;
6017;SDS011;3037;51.068;13.780;2022-12-18T13:41:53;27.53;;;14.53;;
6017;SDS011;3037;51.068;13.780;2022-12-18T13:44:58;44.83;;;17.97;;
6017;SDS011;3037;51.068;13.780;2022-12-18T13:47:26;35.23;;;16.83;;
6017;SDS011;3037;51.068;13.780;2022-12-18T13:50:00;28.80;;;15.30;;
6017;SDS011;3037;51.068;13.780;2022-12-18T13:52:35;37.90;;;16.63;;
6017;SDS011;3037;51.068;13.780;2022-12-18T13:55:04;31.10;;;17.40;;
6017;SDS011;3037;51.068;13.780;2022-12-18T13:57:39;36.10;;;17.07;;
6017;SDS011;3037;51.068;13.780;2022-12-18T14:00:40;35.47;;;15.50;;
6017;SDS011;3037;51.068;13.780;2022-12-18T14:02:58;32.63;;;14.57;;
6017;SDS011;3037;51.068;13.780;2022-12-18T14:05:24;30.63;;;14.17;;
6017;SDS011;3037;51.068;13.780;2022-12-18T14:07:55;34.60;;;15.93;;
6017;SDS011;3037;51.068;13.780;2022-12-18T14:10:26;30.50;;;15.27;;
6017;SDS011;3037;51.068;13.780;2022-12-18T14:12:52;32.23;;;14.23;;
6017;SDS011;3037;51.068;13.780;2022-12-18T14:17:54;27.40;;;13.40;;
6017;SDS011;3037;51.068;13.780;2022-12-18T14:20:24;28.07;;;13.93;;
6017;SDS011;3037;51.068;13.780;2022-12-18T14:22:51;29.47;;;15.00;;
6017;SDS011;3037;51.068;13.780;2022-12-18T14:25:26;27.00;;;14.37;;
6017;SDS011;3037;51.068;13.780;2022-12-18T14:28:02;31.00;;;14.00;;
6017;SDS011;3037;51.068;13.780;2022-12-18T14:30:38;25.80;;;12.90;;
6017;SDS011;3037;51.068;13.780;2022-12-18T14:35:34;35.90;;;13.87;;
6017;SDS011;3037;51.068;13.780;2022-12-18T14:40:56;28.53;;;14.30;;
6017;SDS011;3037;51.068;13.780;2022-12-18T14:43:22;30.03;;;13.73;;
6017;SDS011;3037;51.068;13.780;2022-12-18T14:45:48;29.43;;;14.63;;
6017;SDS011;3037;51.068;13.780;2022-12-18T14:51:13;33.47;;;13.63;;
6017;SDS011;3037;51.068;13.780;2022-12-18T14:53:54;34.10;;;15.30;;
6017;SDS011;3037;51.068;13.780;2022-12-18T14:56:32;34.77;;;16.03;;
6017;SDS011;3037;51.068;13.780;2022-12-18T14:59:03;30.07;;;14.30;;
6017;SDS011;3037;51.068;13.780;2022-12-18T15:01:37;36.13;;;14.23;;
6017;SDS011;3037;51.068;13.780;2022-12-18T15:04:29;29.47;;;13.63;;
6017;SDS011;3037;51.068;13.780;2022-12-18T15:09:31;40.03;;;15.17;;
6017;SDS011;3037;51.068;13.780;2022-12-18T15:12:00;34.90;;;15.60;;
6017;SDS011;3037;51.068;13.780;2022-12-18T15:16:55;32.23;;;15.40;;
6017;SDS011;3037;51.068;13.780;2022-12-18T15:19:21;36.53;;;17.23;;
6017;SDS011;3037;51.068;13.780;2022-12-18T15:21:50;29.33;;;15.07;;
6017;SDS011;3037;51.068;13.780;2022-12-18T15:24:22;35.77;;;15.87;;
6017;SDS011;3037;51.068;13.780;2022-12-18T15:26:51;29.10;;;16.47;;
6017;SDS011;3037;51.068;13.780;2022-12-18T15:29:18;27.83;;;14.00;;
6017;SDS011;3037;51.068;13.780;2022-12-18T15:31:58;33.93;;;15.53;;
6017;SDS011;3037;51.068;13.780;2022-12-18T15:34:24;40.77;;;14.70;;
6017;SDS011;3037;51.068;13.780;2022-12-18T15:36:51;33.60;;;14.87;;
6017;SDS011;3037;51.068;13.780;2022-12-18T15:39:16;41.20;;;16.43;;
6017;SDS011;3037;51.068;13.780;2022-12-18T15:41:42;39.80;;;15.50;;
6017;SDS011;3037;51.068;13.780;2022-12-18T15:44:28;34.03;;;15.77;;
6017;SDS011;3037;51.068;13.780;2022-12-18T15:46:53;29.37;;;15.07;;
6017;SDS011;3037;51.068;13.780;2022-12-18T15:49:19;33.67;;;16.57;;
6017;SDS011;3037;51.068;13.780;2022-12-18T15:51:45;38.80;;;16.97;;
6017;SDS011;3037;51.068;13.780;2022-12-18T15:54:18;29.93;;;16.27;;
6017;SDS011;3037;51.068;13.780;2022-12-18T15:57:04;32.60;;;14.13;;
6017;SDS011;3037;51.068;13.780;2022-12-18T15:59:47;36.63;;;17.27;;
6017;SDS011;3037;51.068;13.780;2022-12-18T16:02:14;38.10;;;16.47;;
6017;SDS011;3037;51.068;13.780;2022-12-18T16:04:42;32.93;;;14.77;;
6017;SDS011;3037;51.068;13.780;2022-12-18T16:07:08;43.53;;;15.80;;
6017;SDS011;3037;51.068;13.780;2022-12-18T16:09:34;42.33;;;17.00;;
6017;SDS011;3037;51.068;13.780;2022-12-18T16:12:00;30.70;;;17.30;;
6017;SDS011;3037;51.068;13.780;2022-12-18T16:14:28;31.10;;;16.43;;
6017;SDS011;3037;51.068;13.780;2022-12-18T16:16:55;31.83;;;14.83;;
6017;SDS011;3037;51.068;13.780;2022-12-18T16:19:25;32.00;;;15.60;;
6017;SDS011;3037;51.068;13.780;2022-12-18T16:21:52;29.30;;;16.03;;
6017;SDS011;3037;51.068;13.780;2022-12-18T16:24:21;36.83;;;16.63;;
6017;SDS011;3037;51.068;13.780;2022-12-18T16:26:49;39.37;;;16.20;;
6017;SDS011;3037;51.068;13.780;2022-12-18T16:29:19;34.27;;;14.57;;
6017;SDS011;3037;51.068;13.780;2022-12-18T16:31:51;35.90;;;17.07;;
6017;SDS011;3037;51.068;13.780;2022-12-18T16:34:27;45.20;;;15.57;;